sensor_id;sensor_type;location;lat;lon;timestamp;P1;durP1;ratioP1;P2;durP2;ratioP2
18076;SDS011;9165;45.714;11.362;2022-12-05T00:00:10;16.50;;;12.97;;
18076;SDS011;9165;45.714;11.362;2022-12-05T00:02:38;17.57;;;11.93;;
18076;SDS011;9165;45.714;11.362;2022-12-05T00:05:05;19.40;;;12.80;;
18076;SDS011;9165;45.714;11.362;2022-12-05T00:07:32;18.20;;;12.73;;
18076;SDS011;9165;45.714;11.362;2022-12-05T00:09:58;17.00;;;12.30;;
18076;SDS011;9165;45.714;11.362;2022-12-05T00:12:25;17.90;;;13.00;;
18076;SDS011;9165;45.714;11.362;2022-12-05T00:14:51;16.23;;;11.83;;
18076;SDS011;9165;45.714;11.362;2022-12-05T00:17:18;17.77;;;12.77;;
18076;SDS011;9165;45.714;11.362;2022-12-05T00:19:46;19.07;;;13.07;;
18076;SDS011;9165;45.714;11.362;2022-12-05T00:22:12;19.13;;;13.33;;
18076;SDS011;9165;45.714;11.362;2022-12-05T00:24:39;19.67;;;13.97;;
18076;SDS011;9165;45.714;11.362;2022-12-05T00:27:05;23.87;;;14.40;;
18076;SDS011;9165;45.714;11.362;2022-12-05T00:29:32;21.70;;;13.77;;
18076;SDS011;9165;45.714;11.362;2022-12-05T00:31:58;17.63;;;13.27;;
18076;SDS011;9165;45.714;11.362;2022-12-05T00:34:25;21.90;;;14.23;;
18076;SDS011;9165;45.714;11.362;2022-12-05T00:36:53;20.80;;;13.97;;
18076;SDS011;9165;45.714;11.362;2022-12-05T00:39:19;21.40;;;13.77;;
18076;SDS011;9165;45.714;11.362;2022-12-05T00:41:46;22.33;;;14.63;;
18076;SDS011;9165;45.714;11.362;2022-12-05T00:44:12;19.50;;;14.90;;
18076;SDS011;9165;45.714;11.362;2022-12-05T00:46:39;24.93;;;14.73;;
18076;SDS011;9165;45.714;11.362;2022-12-05T00:49:06;21.77;;;13.00;;
18076;SDS011;9165;45.714;11.362;2022-12-05T00:51:33;21.90;;;14.27;;
18076;SDS011;9165;45.714;11.362;2022-12-05T00:54:02;21.03;;;14.67;;
18076;SDS011;9165;45.714;11.362;2022-12-05T00:56:29;20.43;;;14.20;;
18076;SDS011;9165;45.714;11.362;2022-12-05T00:58:57;20.93;;;14.60;;
18076;SDS011;9165;45.714;11.362;2022-12-05T01:01:24;20.80;;;14.40;;
18076;SDS011;9165;45.714;11.362;2022-12-05T01:03:52;19.90;;;13.57;;
18076;SDS011;9165;45.714;11.362;2022-12-05T01:06:20;18.23;;;13.63;;
18076;SDS011;9165;45.714;11.362;2022-12-05T01:08:47;22.43;;;14.73;;
18076;SDS011;9165;45.714;11.362;2022-12-05T01:11:15;23.60;;;14.83;;
18076;SDS011;9165;45.714;11.362;2022-12-05T01:13:42;22.93;;;15.43;;
18076;SDS011;9165;45.714;11.362;2022-12-05T01:16:12;20.67;;;14.37;;
18076;SDS011;9165;45.714;11.362;2022-12-05T01:18:39;23.57;;;15.70;;
18076;SDS011;9165;45.714;11.362;2022-12-05T01:21:05;18.97;;;13.07;;
18076;SDS011;9165;45.714;11.362;2022-12-05T01:23:32;24.47;;;14.80;;
18076;SDS011;9165;45.714;11.362;2022-12-05T01:25:58;20.90;;;15.00;;
18076;SDS011;9165;45.714;11.362;2022-12-05T01:28:27;19.03;;;13.50;;
18076;SDS011;9165;45.714;11.362;2022-12-05T01:30:53;22.03;;;14.07;;
18076;SDS011;9165;45.714;11.362;2022-12-05T01:33:20;19.97;;;13.73;;
18076;SDS011;9165;45.714;11.362;2022-12-05T01:35:46;22.80;;;14.57;;
18076;SDS011;9165;45.714;11.362;2022-12-05T01:38:13;22.20;;;14.27;;
18076;SDS011;9165;45.714;11.362;2022-12-05T01:40:40;21.37;;;14.23;;
18076;SDS011;9165;45.714;11.362;2022-12-05T01:43:09;20.43;;;13.53;;
18076;SDS011;9165;45.714;11.362;2022-12-05T01:45:42;20.50;;;13.53;;
18076;SDS011;9165;45.714;11.362;2022-12-05T01:48:09;23.13;;;14.73;;
18076;SDS011;9165;45.714;11.362;2022-12-05T01:50:37;20.10;;;14.07;;
18076;SDS011;9165;45.714;11.362;2022-12-05T01:53:04;19.03;;;13.33;;
18076;SDS011;9165;45.714;11.362;2022-12-05T01:55:31;19.57;;;14.13;;
18076;SDS011;9165;45.714;11.362;2022-12-05T01:57:58;20.57;;;14.00;;
18076;SDS011;9165;45.714;11.362;2022-12-05T02:00:25;20.20;;;13.60;;
18076;SDS011;9165;45.714;11.362;2022-12-05T02:02:55;22.93;;;15.07;;
18076;SDS011;9165;45.714;11.362;2022-12-05T02:05:22;20.03;;;14.20;;
18076;SDS011;9165;45.714;11.362;2022-12-05T02:07:50;17.47;;;13.03;;
18076;SDS011;9165;45.714;11.362;2022-12-05T02:10:17;22.50;;;13.27;;
18076;SDS011;9165;45.714;11.362;2022-12-05T02:12:44;18.70;;;12.93;;
18076;SDS011;9165;45.714;11.362;2022-12-05T02:15:14;21.77;;;12.90;;
18076;SDS011;9165;45.714;11.362;2022-12-05T02:17:47;18.57;;;12.83;;
18076;SDS011;9165;45.714;11.362;2022-12-05T02:20:21;20.17;;;13.97;;
18076;SDS011;9165;45.714;11.362;2022-12-05T02:23:19;19.57;;;12.90;;
18076;SDS011;9165;45.714;11.362;2022-12-05T02:28:43;20.03;;;12.37;;
18076;SDS011;9165;45.714;11.362;2022-12-05T02:31:13;17.20;;;11.23;;
18076;SDS011;9165;45.714;11.362;2022-12-05T02:33:43;21.17;;;11.77;;
18076;SDS011;9165;45.714;11.362;2022-12-05T02:36:12;21.00;;;11.83;;
18076;SDS011;9165;45.714;11.362;2022-12-05T02:38:43;16.20;;;10.53;;
18076;SDS011;9165;45.714;11.362;2022-12-05T02:41:13;15.93;;;10.93;;
18076;SDS011;9165;45.714;11.362;2022-12-05T02:43:43;13.53;;;9.77;;
18076;SDS011;9165;45.714;11.362;2022-12-05T02:46:15;16.90;;;10.53;;
18076;SDS011;9165;45.714;11.362;2022-12-05T02:48:42;14.37;;;9.97;;
18076;SDS011;9165;45.714;11.362;2022-12-05T02:51:10;20.43;;;9.67;;
18076;SDS011;9165;45.714;11.362;2022-12-05T02:53:39;13.97;;;9.60;;
18076;SDS011;9165;45.714;11.362;2022-12-05T02:56:07;14.47;;;9.03;;
18076;SDS011;9165;45.714;11.362;2022-12-05T02:58:35;11.30;;;7.77;;
18076;SDS011;9165;45.714;11.362;2022-12-05T03:01:06;12.27;;;8.27;;
18076;SDS011;9165;45.714;11.362;2022-12-05T03:03:34;10.03;;;6.73;;
18076;SDS011;9165;45.714;11.362;2022-12-05T03:06:02;7.37;;;6.30;;
18076;SDS011;9165;45.714;11.362;2022-12-05T03:08:31;8.37;;;6.03;;
18076;SDS011;9165;45.714;11.362;2022-12-05T03:10:59;6.13;;;4.53;;
18076;SDS011;9165;45.714;11.362;2022-12-05T03:13:28;6.27;;;4.23;;
18076;SDS011;9165;45.714;11.362;2022-12-05T03:15:57;5.63;;;4.07;;
18076;SDS011;9165;45.714;11.362;2022-12-05T03:18:25;4.17;;;3.53;;
18076;SDS011;9165;45.714;11.362;2022-12-05T03:20:56;4.00;;;3.20;;
18076;SDS011;9165;45.714;11.362;2022-12-05T03:23:26;3.67;;;2.80;;
18076;SDS011;9165;45.714;11.362;2022-12-05T03:25:57;2.53;;;2.33;;
18076;SDS011;9165;45.714;11.362;2022-12-05T03:28:27;2.30;;;2.10;;
18076;SDS011;9165;45.714;11.362;2022-12-05T03:30:55;1.80;;;1.70;;
18076;SDS011;9165;45.714;11.362;2022-12-05T03:33:27;2.07;;;1.87;;
18076;SDS011;9165;45.714;11.362;2022-12-05T03:35:58;2.07;;;1.77;;
18076;SDS011;9165;45.714;11.362;2022-12-05T03:38:28;1.67;;;1.50;;
18076;SDS011;9165;45.714;11.362;2022-12-05T03:40:56;2.13;;;1.93;;
18076;SDS011;9165;45.714;11.362;2022-12-05T03:43:32;2.10;;;1.70;;
18076;SDS011;9165;45.714;11.362;2022-12-05T03:46:00;1.70;;;1.60;;
18076;SDS011;9165;45.714;11.362;2022-12-05T03:48:29;6.13;;;1.40;;
18076;SDS011;9165;45.714;11.362;2022-12-05T03:50:58;2.17;;;1.70;;
18076;SDS011;9165;45.714;11.362;2022-12-05T03:53:26;1.77;;;1.50;;
18076;SDS011;9165;45.714;11.362;2022-12-05T03:55:54;1.40;;;1.30;;
18076;SDS011;9165;45.714;11.362;2022-12-05T03:58:24;1.67;;;1.40;;
18076;SDS011;9165;45.714;11.362;2022-12-05T04:00:52;1.40;;;1.27;;
18076;SDS011;9165;45.714;11.362;2022-12-05T04:03:19;1.73;;;1.43;;
18076;SDS011;9165;45.714;11.362;2022-12-05T04:05:48;1.63;;;1.53;;
18076;SDS011;9165;45.714;11.362;2022-12-05T04:08:18;2.17;;;1.70;;
18076;SDS011;9165;45.714;11.362;2022-12-05T04:10:46;1.50;;;1.20;;
18076;SDS011;9165;45.714;11.362;2022-12-05T04:13:14;1.53;;;1.40;;
18076;SDS011;9165;45.714;11.362;2022-12-05T04:15:44;1.43;;;1.33;;
18076;SDS011;9165;45.714;11.362;2022-12-05T04:18:25;1.27;;;1.17;;
18076;SDS011;9165;45.714;11.362;2022-12-05T04:20:53;1.47;;;1.17;;
18076;SDS011;9165;45.714;11.362;2022-12-05T04:23:40;1.50;;;1.37;;
18076;SDS011;9165;45.714;11.362;2022-12-05T04:26:08;1.67;;;1.57;;
18076;SDS011;9165;45.714;11.362;2022-12-05T04:28:36;2.07;;;1.47;;
18076;SDS011;9165;45.714;11.362;2022-12-05T04:31:05;1.63;;;1.33;;
18076;SDS011;9165;45.714;11.362;2022-12-05T04:33:34;1.80;;;1.60;;
18076;SDS011;9165;45.714;11.362;2022-12-05T04:36:04;1.70;;;1.47;;
18076;SDS011;9165;45.714;11.362;2022-12-05T04:38:34;1.80;;;1.70;;
18076;SDS011;9165;45.714;11.362;2022-12-05T04:41:05;1.63;;;1.43;;
18076;SDS011;9165;45.714;11.362;2022-12-05T04:43:34;2.03;;;1.60;;
18076;SDS011;9165;45.714;11.362;2022-12-05T04:46:02;1.47;;;1.37;;
18076;SDS011;9165;45.714;11.362;2022-12-05T04:48:30;2.13;;;1.80;;
18076;SDS011;9165;45.714;11.362;2022-12-05T04:50:58;1.63;;;1.50;;
18076;SDS011;9165;45.714;11.362;2022-12-05T04:53:25;1.83;;;1.60;;
18076;SDS011;9165;45.714;11.362;2022-12-05T04:55:53;2.13;;;1.87;;
18076;SDS011;9165;45.714;11.362;2022-12-05T04:58:22;2.97;;;1.90;;
18076;SDS011;9165;45.714;11.362;2022-12-05T05:00:50;2.33;;;1.70;;
18076;SDS011;9165;45.714;11.362;2022-12-05T05:03:18;2.37;;;1.60;;
18076;SDS011;9165;45.714;11.362;2022-12-05T05:05:47;2.57;;;1.60;;
18076;SDS011;9165;45.714;11.362;2022-12-05T05:08:15;2.83;;;1.70;;
18076;SDS011;9165;45.714;11.362;2022-12-05T05:10:44;1.90;;;1.60;;
18076;SDS011;9165;45.714;11.362;2022-12-05T05:13:14;1.53;;;1.43;;
18076;SDS011;9165;45.714;11.362;2022-12-05T05:15:42;1.70;;;1.20;;
18076;SDS011;9165;45.714;11.362;2022-12-05T05:18:08;1.80;;;1.50;;
18076;SDS011;9165;45.714;11.362;2022-12-05T05:20:37;1.10;;;1.07;;
18076;SDS011;9165;45.714;11.362;2022-12-05T05:23:04;1.40;;;1.30;;
18076;SDS011;9165;45.714;11.362;2022-12-05T05:25:30;1.97;;;1.67;;
18076;SDS011;9165;45.714;11.362;2022-12-05T05:27:57;3.73;;;2.00;;
18076;SDS011;9165;45.714;11.362;2022-12-05T05:30:24;2.43;;;1.80;;
18076;SDS011;9165;45.714;11.362;2022-12-05T05:32:52;1.90;;;1.50;;
18076;SDS011;9165;45.714;11.362;2022-12-05T05:35:19;2.37;;;2.00;;
18076;SDS011;9165;45.714;11.362;2022-12-05T05:37:45;2.27;;;1.57;;
18076;SDS011;9165;45.714;11.362;2022-12-05T05:40:12;1.27;;;1.13;;
18076;SDS011;9165;45.714;11.362;2022-12-05T05:42:41;3.87;;;1.33;;
18076;SDS011;9165;45.714;11.362;2022-12-05T05:45:08;1.70;;;1.47;;
18076;SDS011;9165;45.714;11.362;2022-12-05T05:47:35;1.97;;;1.50;;
18076;SDS011;9165;45.714;11.362;2022-12-05T05:50:03;1.60;;;1.20;;
18076;SDS011;9165;45.714;11.362;2022-12-05T05:52:31;3.43;;;2.13;;
18076;SDS011;9165;45.714;11.362;2022-12-05T05:54:57;1.50;;;1.40;;
18076;SDS011;9165;45.714;11.362;2022-12-05T05:57:24;2.13;;;1.27;;
18076;SDS011;9165;45.714;11.362;2022-12-05T05:59:50;6.20;;;1.80;;
18076;SDS011;9165;45.714;11.362;2022-12-05T06:02:17;4.10;;;1.30;;
18076;SDS011;9165;45.714;11.362;2022-12-05T06:04:44;2.70;;;1.40;;
18076;SDS011;9165;45.714;11.362;2022-12-05T06:07:12;1.60;;;1.00;;
18076;SDS011;9165;45.714;11.362;2022-12-05T06:09:39;2.53;;;1.17;;
18076;SDS011;9165;45.714;11.362;2022-12-05T06:12:06;1.07;;;0.97;;
18076;SDS011;9165;45.714;11.362;2022-12-05T06:14:32;1.20;;;1.10;;
18076;SDS011;9165;45.714;11.362;2022-12-05T06:16:59;0.70;;;0.70;;
18076;SDS011;9165;45.714;11.362;2022-12-05T06:19:25;1.03;;;0.90;;
18076;SDS011;9165;45.714;11.362;2022-12-05T06:21:52;1.23;;;0.93;;
18076;SDS011;9165;45.714;11.362;2022-12-05T06:24:20;1.40;;;1.30;;
18076;SDS011;9165;45.714;11.362;2022-12-05T06:26:46;1.27;;;1.17;;
18076;SDS011;9165;45.714;11.362;2022-12-05T06:29:13;3.10;;;1.10;;
18076;SDS011;9165;45.714;11.362;2022-12-05T06:31:40;1.30;;;0.90;;
18076;SDS011;9165;45.714;11.362;2022-12-05T06:34:06;1.30;;;1.20;;
18076;SDS011;9165;45.714;11.362;2022-12-05T06:36:33;1.77;;;1.60;;
18076;SDS011;9165;45.714;11.362;2022-12-05T06:38:59;2.10;;;1.30;;
18076;SDS011;9165;45.714;11.362;2022-12-05T06:41:27;2.17;;;1.63;;
18076;SDS011;9165;45.714;11.362;2022-12-05T06:43:54;2.27;;;1.67;;
18076;SDS011;9165;45.714;11.362;2022-12-05T06:46:22;3.27;;;1.70;;
18076;SDS011;9165;45.714;11.362;2022-12-05T06:48:51;2.20;;;1.50;;
18076;SDS011;9165;45.714;11.362;2022-12-05T06:51:18;1.77;;;1.63;;
18076;SDS011;9165;45.714;11.362;2022-12-05T06:53:44;3.00;;;2.03;;
18076;SDS011;9165;45.714;11.362;2022-12-05T06:56:12;1.90;;;1.63;;
18076;SDS011;9165;45.714;11.362;2022-12-05T06:58:42;1.73;;;1.63;;
18076;SDS011;9165;45.714;11.362;2022-12-05T07:01:10;2.10;;;1.50;;
18076;SDS011;9165;45.714;11.362;2022-12-05T07:03:54;1.50;;;1.30;;
18076;SDS011;9165;45.714;11.362;2022-12-05T07:06:20;1.47;;;1.30;;
18076;SDS011;9165;45.714;11.362;2022-12-05T07:08:47;1.90;;;1.70;;
18076;SDS011;9165;45.714;11.362;2022-12-05T07:11:13;2.37;;;1.90;;
18076;SDS011;9165;45.714;11.362;2022-12-05T07:13:41;1.83;;;1.40;;
18076;SDS011;9165;45.714;11.362;2022-12-05T07:16:08;3.30;;;1.67;;
18076;SDS011;9165;45.714;11.362;2022-12-05T07:18:35;1.83;;;1.60;;
18076;SDS011;9165;45.714;11.362;2022-12-05T07:21:03;3.23;;;1.90;;
18076;SDS011;9165;45.714;11.362;2022-12-05T07:23:30;3.00;;;2.20;;
18076;SDS011;9165;45.714;11.362;2022-12-05T07:25:56;4.77;;;2.87;;
18076;SDS011;9165;45.714;11.362;2022-12-05T07:28:23;8.80;;;5.43;;
18076;SDS011;9165;45.714;11.362;2022-12-05T07:30:59;6.53;;;3.53;;
18076;SDS011;9165;45.714;11.362;2022-12-05T07:33:26;5.10;;;3.57;;
18076;SDS011;9165;45.714;11.362;2022-12-05T07:35:57;4.43;;;3.10;;
18076;SDS011;9165;45.714;11.362;2022-12-05T07:38:23;7.37;;;5.00;;
18076;SDS011;9165;45.714;11.362;2022-12-05T07:40:50;4.87;;;2.80;;
18076;SDS011;9165;45.714;11.362;2022-12-05T07:43:16;5.27;;;2.87;;
18076;SDS011;9165;45.714;11.362;2022-12-05T07:45:43;2.90;;;2.20;;
18076;SDS011;9165;45.714;11.362;2022-12-05T07:48:11;4.87;;;2.57;;
18076;SDS011;9165;45.714;11.362;2022-12-05T07:50:37;4.33;;;2.60;;
18076;SDS011;9165;45.714;11.362;2022-12-05T07:53:04;2.90;;;2.47;;
18076;SDS011;9165;45.714;11.362;2022-12-05T07:55:30;2.07;;;1.87;;
18076;SDS011;9165;45.714;11.362;2022-12-05T07:57:57;2.93;;;2.40;;
18076;SDS011;9165;45.714;11.362;2022-12-05T08:00:23;3.60;;;2.17;;
18076;SDS011;9165;45.714;11.362;2022-12-05T08:02:50;2.93;;;2.10;;
18076;SDS011;9165;45.714;11.362;2022-12-05T08:05:18;2.93;;;2.10;;
18076;SDS011;9165;45.714;11.362;2022-12-05T08:07:44;3.27;;;2.13;;
18076;SDS011;9165;45.714;11.362;2022-12-05T08:10:11;1.63;;;1.53;;
18076;SDS011;9165;45.714;11.362;2022-12-05T08:12:37;2.20;;;1.60;;
18076;SDS011;9165;45.714;11.362;2022-12-05T08:15:05;2.47;;;1.80;;
18076;SDS011;9165;45.714;11.362;2022-12-05T08:17:31;2.60;;;2.40;;
18076;SDS011;9165;45.714;11.362;2022-12-05T08:19:58;2.77;;;1.70;;
18076;SDS011;9165;45.714;11.362;2022-12-05T08:22:26;2.80;;;1.73;;
18076;SDS011;9165;45.714;11.362;2022-12-05T08:24:53;6.30;;;2.27;;
18076;SDS011;9165;45.714;11.362;2022-12-05T08:27:20;2.90;;;1.70;;
18076;SDS011;9165;45.714;11.362;2022-12-05T08:29:46;2.03;;;1.73;;
18076;SDS011;9165;45.714;11.362;2022-12-05T08:32:13;1.93;;;1.60;;
18076;SDS011;9165;45.714;11.362;2022-12-05T08:34:39;2.43;;;1.90;;
18076;SDS011;9165;45.714;11.362;2022-12-05T08:37:06;2.23;;;1.70;;
18076;SDS011;9165;45.714;11.362;2022-12-05T08:39:34;4.27;;;2.53;;
18076;SDS011;9165;45.714;11.362;2022-12-05T08:42:01;2.73;;;2.17;;
18076;SDS011;9165;45.714;11.362;2022-12-05T08:44:28;3.00;;;2.30;;
18076;SDS011;9165;45.714;11.362;2022-12-05T08:46:54;3.43;;;3.10;;
18076;SDS011;9165;45.714;11.362;2022-12-05T08:49:21;6.57;;;3.07;;
18076;SDS011;9165;45.714;11.362;2022-12-05T08:51:47;5.47;;;2.50;;
18076;SDS011;9165;45.714;11.362;2022-12-05T08:54:14;3.33;;;2.60;;
18076;SDS011;9165;45.714;11.362;2022-12-05T08:56:42;3.60;;;2.53;;
18076;SDS011;9165;45.714;11.362;2022-12-05T08:59:09;6.50;;;2.33;;
18076;SDS011;9165;45.714;11.362;2022-12-05T09:01:36;3.77;;;2.30;;
18076;SDS011;9165;45.714;11.362;2022-12-05T09:04:03;3.33;;;2.20;;
18076;SDS011;9165;45.714;11.362;2022-12-05T09:06:30;3.67;;;2.17;;
18076;SDS011;9165;45.714;11.362;2022-12-05T09:08:57;4.00;;;2.40;;
18076;SDS011;9165;45.714;11.362;2022-12-05T09:11:25;4.80;;;2.40;;
18076;SDS011;9165;45.714;11.362;2022-12-05T09:13:54;5.93;;;2.73;;
18076;SDS011;9165;45.714;11.362;2022-12-05T09:16:22;2.50;;;2.30;;
18076;SDS011;9165;45.714;11.362;2022-12-05T09:18:49;2.83;;;2.27;;
18076;SDS011;9165;45.714;11.362;2022-12-05T09:21:17;1.90;;;1.63;;
18076;SDS011;9165;45.714;11.362;2022-12-05T09:23:43;3.83;;;2.43;;
18076;SDS011;9165;45.714;11.362;2022-12-05T09:26:10;2.80;;;2.40;;
18076;SDS011;9165;45.714;11.362;2022-12-05T09:28:37;2.90;;;2.30;;
18076;SDS011;9165;45.714;11.362;2022-12-05T09:31:06;3.00;;;2.20;;
18076;SDS011;9165;45.714;11.362;2022-12-05T09:33:34;3.17;;;2.20;;
18076;SDS011;9165;45.714;11.362;2022-12-05T09:36:01;3.73;;;2.53;;
18076;SDS011;9165;45.714;11.362;2022-12-05T09:38:28;4.23;;;2.67;;
18076;SDS011;9165;45.714;11.362;2022-12-05T09:41:03;4.93;;;2.80;;
18076;SDS011;9165;45.714;11.362;2022-12-05T09:43:33;9.13;;;2.90;;
18076;SDS011;9165;45.714;11.362;2022-12-05T09:46:03;2.60;;;2.37;;
18076;SDS011;9165;45.714;11.362;2022-12-05T09:48:33;4.33;;;2.73;;
18076;SDS011;9165;45.714;11.362;2022-12-05T09:51:00;2.70;;;2.20;;
18076;SDS011;9165;45.714;11.362;2022-12-05T09:53:29;3.63;;;2.73;;
18076;SDS011;9165;45.714;11.362;2022-12-05T09:55:56;3.03;;;2.40;;
18076;SDS011;9165;45.714;11.362;2022-12-05T09:58:27;4.00;;;2.77;;
18076;SDS011;9165;45.714;11.362;2022-12-05T10:00:58;3.60;;;3.00;;
18076;SDS011;9165;45.714;11.362;2022-12-05T10:03:27;4.63;;;3.43;;
18076;SDS011;9165;45.714;11.362;2022-12-05T10:05:59;4.77;;;3.30;;
18076;SDS011;9165;45.714;11.362;2022-12-05T10:08:28;5.00;;;3.47;;
18076;SDS011;9165;45.714;11.362;2022-12-05T10:10:59;4.57;;;2.87;;
18076;SDS011;9165;45.714;11.362;2022-12-05T10:13:29;5.40;;;3.23;;
18076;SDS011;9165;45.714;11.362;2022-12-05T10:16:01;4.93;;;2.67;;
18076;SDS011;9165;45.714;11.362;2022-12-05T10:18:32;5.43;;;3.13;;
18076;SDS011;9165;45.714;11.362;2022-12-05T10:21:04;4.50;;;2.90;;
18076;SDS011;9165;45.714;11.362;2022-12-05T10:23:37;3.73;;;3.07;;
18076;SDS011;9165;45.714;11.362;2022-12-05T10:26:04;5.10;;;3.33;;
18076;SDS011;9165;45.714;11.362;2022-12-05T10:28:33;4.83;;;3.30;;
18076;SDS011;9165;45.714;11.362;2022-12-05T10:31:03;4.67;;;3.67;;
18076;SDS011;9165;45.714;11.362;2022-12-05T10:33:34;5.73;;;4.20;;
18076;SDS011;9165;45.714;11.362;2022-12-05T10:36:09;7.13;;;4.83;;
18076;SDS011;9165;45.714;11.362;2022-12-05T10:38:36;7.73;;;4.67;;
18076;SDS011;9165;45.714;11.362;2022-12-05T10:41:04;5.97;;;4.53;;
18076;SDS011;9165;45.714;11.362;2022-12-05T10:43:32;7.80;;;5.27;;
18076;SDS011;9165;45.714;11.362;2022-12-05T10:45:58;13.23;;;7.03;;
18076;SDS011;9165;45.714;11.362;2022-12-05T10:48:26;11.83;;;7.00;;
18076;SDS011;9165;45.714;11.362;2022-12-05T10:50:53;9.67;;;6.20;;
18076;SDS011;9165;45.714;11.362;2022-12-05T10:53:24;10.17;;;6.50;;
18076;SDS011;9165;45.714;11.362;2022-12-05T10:55:52;9.40;;;5.50;;
18076;SDS011;9165;45.714;11.362;2022-12-05T10:58:19;6.93;;;5.30;;
18076;SDS011;9165;45.714;11.362;2022-12-05T11:00:48;9.27;;;5.30;;
18076;SDS011;9165;45.714;11.362;2022-12-05T11:03:21;6.47;;;5.30;;
18076;SDS011;9165;45.714;11.362;2022-12-05T11:05:48;11.23;;;6.43;;
18076;SDS011;9165;45.714;11.362;2022-12-05T11:08:20;9.37;;;6.57;;
18076;SDS011;9165;45.714;11.362;2022-12-05T11:10:48;8.63;;;6.40;;
18076;SDS011;9165;45.714;11.362;2022-12-05T11:13:24;11.43;;;6.30;;
18076;SDS011;9165;45.714;11.362;2022-12-05T11:15:50;9.73;;;7.03;;
18076;SDS011;9165;45.714;11.362;2022-12-05T11:18:18;12.87;;;6.33;;
18076;SDS011;9165;45.714;11.362;2022-12-05T11:20:45;7.80;;;5.43;;
18076;SDS011;9165;45.714;11.362;2022-12-05T11:23:16;5.93;;;4.70;;
18076;SDS011;9165;45.714;11.362;2022-12-05T11:25:42;10.03;;;5.13;;
18076;SDS011;9165;45.714;11.362;2022-12-05T11:28:23;7.43;;;5.40;;
18076;SDS011;9165;45.714;11.362;2022-12-05T11:31:00;11.20;;;5.20;;
18076;SDS011;9165;45.714;11.362;2022-12-05T11:33:28;8.33;;;5.43;;
18076;SDS011;9165;45.714;11.362;2022-12-05T11:35:56;9.50;;;5.50;;
18076;SDS011;9165;45.714;11.362;2022-12-05T11:38:25;14.40;;;8.97;;
18076;SDS011;9165;45.714;11.362;2022-12-05T11:40:52;11.50;;;5.37;;
18076;SDS011;9165;45.714;11.362;2022-12-05T11:46:07;10.20;;;5.20;;
18076;SDS011;9165;45.714;11.362;2022-12-05T11:48:40;7.30;;;5.53;;
18076;SDS011;9165;45.714;11.362;2022-12-05T11:51:17;10.03;;;7.47;;
18076;SDS011;9165;45.714;11.362;2022-12-05T11:53:56;8.27;;;6.40;;
18076;SDS011;9165;45.714;11.362;2022-12-05T11:56:27;9.73;;;6.87;;
18076;SDS011;9165;45.714;11.362;2022-12-05T11:59:00;8.63;;;6.77;;
18076;SDS011;9165;45.714;11.362;2022-12-05T12:01:37;9.97;;;6.87;;
18076;SDS011;9165;45.714;11.362;2022-12-05T12:06:56;10.13;;;7.37;;
18076;SDS011;9165;45.714;11.362;2022-12-05T12:09:29;9.63;;;7.57;;
18076;SDS011;9165;45.714;11.362;2022-12-05T12:11:58;12.80;;;6.77;;
18076;SDS011;9165;45.714;11.362;2022-12-05T12:14:28;9.90;;;7.03;;
18076;SDS011;9165;45.714;11.362;2022-12-05T12:17:00;9.30;;;7.00;;
18076;SDS011;9165;45.714;11.362;2022-12-05T12:19:32;7.80;;;6.20;;
18076;SDS011;9165;45.714;11.362;2022-12-05T12:22:05;10.10;;;7.07;;
18076;SDS011;9165;45.714;11.362;2022-12-05T12:24:37;11.37;;;7.40;;
18076;SDS011;9165;45.714;11.362;2022-12-05T12:27:08;9.07;;;6.47;;
18076;SDS011;9165;45.714;11.362;2022-12-05T12:29:43;8.20;;;5.87;;
18076;SDS011;9165;45.714;11.362;2022-12-05T12:32:17;10.23;;;6.47;;
18076;SDS011;9165;45.714;11.362;2022-12-05T12:34:53;8.37;;;6.47;;
18076;SDS011;9165;45.714;11.362;2022-12-05T12:37:23;10.03;;;6.83;;
18076;SDS011;9165;45.714;11.362;2022-12-05T12:39:55;11.20;;;7.50;;
18076;SDS011;9165;45.714;11.362;2022-12-05T12:42:26;6.53;;;5.70;;
18076;SDS011;9165;45.714;11.362;2022-12-05T12:45:13;7.00;;;5.93;;
18076;SDS011;9165;45.714;11.362;2022-12-05T12:47:49;8.50;;;6.43;;
18076;SDS011;9165;45.714;11.362;2022-12-05T12:50:22;7.53;;;6.13;;
18076;SDS011;9165;45.714;11.362;2022-12-05T12:53:05;9.50;;;6.93;;
18076;SDS011;9165;45.714;11.362;2022-12-05T12:55:36;9.37;;;7.27;;
18076;SDS011;9165;45.714;11.362;2022-12-05T12:58:06;10.10;;;7.93;;
18076;SDS011;9165;45.714;11.362;2022-12-05T13:00:41;7.73;;;6.37;;
18076;SDS011;9165;45.714;11.362;2022-12-05T13:03:11;10.10;;;5.43;;
18076;SDS011;9165;45.714;11.362;2022-12-05T13:05:41;8.90;;;5.37;;
18076;SDS011;9165;45.714;11.362;2022-12-05T13:08:11;10.70;;;6.73;;
18076;SDS011;9165;45.714;11.362;2022-12-05T13:10:41;9.57;;;7.00;;
18076;SDS011;9165;45.714;11.362;2022-12-05T13:13:10;9.83;;;6.50;;
18076;SDS011;9165;45.714;11.362;2022-12-05T13:15:39;8.07;;;6.50;;
18076;SDS011;9165;45.714;11.362;2022-12-05T13:18:12;6.77;;;5.93;;
18076;SDS011;9165;45.714;11.362;2022-12-05T13:20:40;9.80;;;7.53;;
18076;SDS011;9165;45.714;11.362;2022-12-05T13:23:06;11.97;;;8.90;;
18076;SDS011;9165;45.714;11.362;2022-12-05T13:25:37;9.77;;;7.63;;
18076;SDS011;9165;45.714;11.362;2022-12-05T13:28:05;10.03;;;7.53;;
18076;SDS011;9165;45.714;11.362;2022-12-05T13:30:33;8.77;;;5.30;;
18076;SDS011;9165;45.714;11.362;2022-12-05T13:33:21;8.63;;;5.30;;
18076;SDS011;9165;45.714;11.362;2022-12-05T13:35:52;6.93;;;5.13;;
18076;SDS011;9165;45.714;11.362;2022-12-05T13:38:37;8.03;;;5.93;;
18076;SDS011;9165;45.714;11.362;2022-12-05T13:41:22;6.23;;;4.87;;
18076;SDS011;9165;45.714;11.362;2022-12-05T13:44:24;6.50;;;4.57;;
18076;SDS011;9165;45.714;11.362;2022-12-05T13:46:52;5.67;;;4.50;;
18076;SDS011;9165;45.714;11.362;2022-12-05T13:49:23;8.30;;;5.10;;
18076;SDS011;9165;45.714;11.362;2022-12-05T13:51:53;10.23;;;5.47;;
18076;SDS011;9165;45.714;11.362;2022-12-05T13:54:21;10.27;;;4.67;;
18076;SDS011;9165;45.714;11.362;2022-12-05T13:56:49;8.80;;;5.93;;
18076;SDS011;9165;45.714;11.362;2022-12-05T14:02:09;7.50;;;4.73;;
18076;SDS011;9165;45.714;11.362;2022-12-05T14:04:54;7.40;;;5.20;;
18076;SDS011;9165;45.714;11.362;2022-12-05T14:07:37;6.63;;;5.50;;
18076;SDS011;9165;45.714;11.362;2022-12-05T14:10:05;6.83;;;5.00;;
18076;SDS011;9165;45.714;11.362;2022-12-05T14:12:48;5.90;;;4.73;;
18076;SDS011;9165;45.714;11.362;2022-12-05T14:15:32;5.27;;;4.10;;
18076;SDS011;9165;45.714;11.362;2022-12-05T14:18:00;5.50;;;4.13;;
18076;SDS011;9165;45.714;11.362;2022-12-05T14:20:30;4.97;;;3.73;;
18076;SDS011;9165;45.714;11.362;2022-12-05T14:23:10;6.13;;;3.80;;
18076;SDS011;9165;45.714;11.362;2022-12-05T14:25:52;5.43;;;3.50;;
18076;SDS011;9165;45.714;11.362;2022-12-05T14:28:28;6.43;;;4.37;;
18076;SDS011;9165;45.714;11.362;2022-12-05T14:31:04;5.63;;;4.50;;
18076;SDS011;9165;45.714;11.362;2022-12-05T14:33:34;5.97;;;4.40;;
18076;SDS011;9165;45.714;11.362;2022-12-05T14:36:05;6.37;;;4.97;;
18076;SDS011;9165;45.714;11.362;2022-12-05T14:38:33;12.53;;;5.93;;
18076;SDS011;9165;45.714;11.362;2022-12-05T14:41:09;6.57;;;4.90;;
18076;SDS011;9165;45.714;11.362;2022-12-05T14:43:37;14.23;;;8.63;;
18076;SDS011;9165;45.714;11.362;2022-12-05T14:46:05;13.10;;;8.53;;
18076;SDS011;9165;45.714;11.362;2022-12-05T14:48:33;12.23;;;7.43;;
18076;SDS011;9165;45.714;11.362;2022-12-05T14:51:01;11.63;;;7.30;;
18076;SDS011;9165;45.714;11.362;2022-12-05T14:53:33;10.87;;;8.13;;
18076;SDS011;9165;45.714;11.362;2022-12-05T14:56:02;12.60;;;7.53;;
18076;SDS011;9165;45.714;11.362;2022-12-05T14:58:31;13.87;;;9.97;;
18076;SDS011;9165;45.714;11.362;2022-12-05T15:00:59;16.70;;;13.03;;
18076;SDS011;9165;45.714;11.362;2022-12-05T15:03:28;13.03;;;11.63;;